CheckWX is a tool to help pilots better visualize weather data.  It is not intended as a substitute for an official pre-flight weather briefing.

23:44:44 UTC

46U METAR
Alpine Airport
Alpine, Wyoming, USA
Current

30 mins ago

K46U 182315Z AUTO 19007G15KT 160V230 10SM FEW034 BKN055 BKN070 05/M01 A2997 RMK A01
Observed
Oct-18 @ 23:15 UTC
Wind
  • 190° at 7 KTS
  • Gusting to 15 KTS
Visibility
10 SM
Flight Rules
VFR
Cloud Levels
  • Few at 3,400' AGL
  • Broken at 5,500' AGL
  • Broken at 7,000' AGL
Temperature
C / 41°F
Dewpoint
-1°C / 30°F
Humidity
66%
Altimeter
29.97" Hg
Pressure
1014.92 hPa
Previous

50 mins ago

K46U 182255Z AUTO 17008G15KT 10SM BKN055 OVC085 05/M00 A2997 RMK A01
Observed
Oct-18 @ 22:55 UTC
Wind
  • 170° at 8 KTS
  • Gusting to 15 KTS
Visibility
10 SM
Flight Rules
VFR
Cloud Levels
  • Broken at 5,500' AGL
  • Overcast at 8,500' AGL
Temperature
C / 41°F
Dewpoint
C / 32°F
Humidity
70%
Altimeter
29.97" Hg
Pressure
1014.92 hPa
Previous

1 hour ago

K46U 182235Z AUTO 17008KT 140V200 10SM FEW043 BKN055 BKN085 05/M01 A2997 RMK A01
Observed
Oct-18 @ 22:35 UTC
Wind
  • 170° at 8 KTS
Visibility
10 SM
Flight Rules
VFR
Cloud Levels
  • Few at 4,300' AGL
  • Broken at 5,500' AGL
  • Broken at 8,500' AGL
Temperature
C / 41°F
Dewpoint
-1°C / 30°F
Humidity
66%
Altimeter
29.97" Hg
Pressure
1014.92 hPa